Time;durP1;ratioP1;P1;durP2;ratioP2;P2;SDS_P1;SDS_P2;PMS_P1;PMS_P2;Temp;Humidity;BMP_temperature;BMP_pressure;BME280_temperature;BME280_humidity;BME280_pressure;Samples;Min_cycle;Max_cycle;Signal;HPM_P1;HPM_P2
2022/11/23 00:01:19;;;;;;;8.80;3.00;;;8.00;79.80;;;;;;5118035;27;20303;-71
2022/11/23 00:03:49;;;;;;;7.00;2.97;;;8.00;79.80;;;;;;5114431;27;20466;-72
2022/11/23 00:06:18;;;;;;;9.40;2.50;;;8.00;79.80;;;;;;5120282;27;20201;-72
2022/11/23 00:08:46;;;;;;;5.18;2.28;;;8.00;79.70;;;;;;5119263;27;20460;-70
2022/11/23 00:11:14;;;;;;;7.53;2.63;;;7.90;79.70;;;;;;5120897;27;20221;-71
2022/11/23 00:13:42;;;;;;;9.02;2.60;;;7.90;79.70;;;;;;5118740;27;20275;-71
2022/11/23 00:16:13;;;;;;;6.72;3.30;;;7.90;79.70;;;;;;5120855;27;20241;-71
2022/11/23 00:18:42;;;;;;;7.75;2.60;;;7.90;79.70;;;;;;5120444;27;20979;-71
2022/11/23 00:21:12;;;;;;;6.35;2.05;;;7.90;79.80;;;;;;5121393;27;20733;-71
2022/11/23 00:23:40;;;;;;;5.80;2.35;;;7.90;79.80;;;;;;5122854;27;20228;-70
2022/11/23 00:26:08;;;;;;;7.00;2.83;;;7.90;79.70;;;;;;5117495;27;20198;-71
2022/11/23 00:28:39;;;;;;;7.03;2.50;;;7.90;79.80;;;;;;5123012;27;20206;-71
2022/11/23 00:31:10;;;;;;;14.13;3.40;;;7.90;79.80;;;;;;5136361;27;20226;-71
2022/11/23 00:33:38;;;;;;;7.53;2.85;;;7.90;79.80;;;;;;5120703;27;20284;-71
2022/11/23 00:36:11;;;;;;;5.45;2.55;;;7.90;79.70;;;;;;5121286;28;20230;-70
2022/11/23 00:38:39;;;;;;;36.75;18.60;;;7.90;79.70;;;;;;5121351;28;20217;-71
2022/11/23 00:41:09;;;;;;;23.05;10.00;;;7.80;79.50;;;;;;5120233;27;20902;-71
2022/11/23 00:43:37;;;;;;;7.25;3.35;;;7.80;79.50;;;;;;5117771;28;20254;-70
2022/11/23 00:46:08;;;;;;;12.17;4.97;;;7.70;79.60;;;;;;5116240;28;20265;-71
2022/11/23 00:48:36;;;;;;;13.80;7.55;;;7.70;79.50;;;;;;5119418;28;20455;-70
2022/11/23 00:51:06;;;;;;;50.50;24.40;;;7.70;79.50;;;;;;5120103;27;20222;-71
2022/11/23 00:53:36;;;;;;;25.73;12.40;;;7.60;79.50;;;;;;5128733;27;20214;-70
2022/11/23 00:56:05;;;;;;;18.98;9.13;;;7.60;79.30;;;;;;5119515;28;20222;-71
2022/11/23 00:58:33;;;;;;;22.33;8.48;;;7.50;79.50;;;;;;5121254;28;20247;-71
2022/11/23 01:01:04;;;;;;;20.20;6.03;;;7.50;79.60;;;;;;5119026;27;20236;-72
2022/11/23 01:03:35;;;;;;;8.60;4.82;;;7.50;79.60;;;;;;5120440;27;20206;-71
2022/11/23 01:06:06;;;;;;;9.63;3.42;;;7.50;79.60;;;;;;5122219;27;20194;-72
2022/11/23 01:08:36;;;;;;;8.55;2.85;;;7.50;79.70;;;;;;5141711;27;20210;-71
2022/11/23 01:11:05;;;;;;;6.03;2.30;;;7.50;79.80;;;;;;5124644;27;20217;-70
2022/11/23 01:13:35;;;;;;;8.32;2.95;;;7.50;79.80;;;;;;5121939;27;20205;-70
2022/11/23 01:16:05;;;;;;;9.40;3.55;;;7.50;79.80;;;;;;5123975;27;20290;-70
2022/11/23 01:18:33;;;;;;;11.02;2.83;;;7.60;79.80;;;;;;5125068;27;20857;-72
2022/11/23 01:21:01;;;;;;;18.27;8.00;;;7.50;79.80;;;;;;5119387;27;20374;-72
2022/11/23 01:23:31;;;;;;;9.93;5.07;;;7.60;79.80;;;;;;5121213;27;20453;-71
2022/11/23 01:26:04;;;;;;;15.73;8.10;;;7.60;79.80;;;;;;5124795;27;20202;-70
2022/11/23 01:28:33;;;;;;;14.52;5.85;;;7.60;79.80;;;;;;5127977;27;20202;-69
2022/11/23 01:31:06;;;;;;;7.78;3.30;;;7.60;79.90;;;;;;5126329;27;20306;-71
2022/11/23 01:33:34;;;;;;;5.93;2.90;;;7.60;79.90;;;;;;5125487;27;20574;-71
2022/11/23 01:36:09;;;;;;;8.13;2.55;;;7.60;79.90;;;;;;5120212;27;20238;-71
2022/11/23 01:38:37;;;;;;;9.75;2.95;;;7.60;79.90;;;;;;5124438;27;20231;-70
2022/11/23 01:41:08;;;;;;;5.28;2.50;;;7.60;79.90;;;;;;5118476;27;20282;-72
2022/11/23 01:43:36;;;;;;;7.32;2.45;;;7.60;79.90;;;;;;5123801;27;20329;-69
2022/11/23 01:46:05;;;;;;;7.47;2.42;;;7.60;79.90;;;;;;5125619;27;20205;-71
2022/11/23 01:48:37;;;;;;;4.78;2.15;;;7.60;79.80;;;;;;5127563;27;20620;-73
2022/11/23 01:51:09;;;;;;;8.18;2.53;;;7.60;79.80;;;;;;5140466;27;20229;-69
2022/11/23 01:53:38;;;;;;;8.45;2.35;;;7.60;79.80;;;;;;5119708;27;20212;-72
2022/11/23 01:56:12;;;;;;;7.03;2.45;;;7.60;79.80;;;;;;5124831;27;20222;-71
2022/11/23 01:58:44;;;;;;;6.45;2.53;;;7.60;79.90;;;;;;5135727;27;20668;-71
2022/11/23 02:01:13;;;;;;;9.15;2.17;;;7.60;79.90;;;;;;5141179;27;20340;-71
2022/11/23 02:03:43;;;;;;;5.78;2.45;;;7.60;79.90;;;;;;5119484;27;20213;-69
2022/11/23 02:06:15;;;;;;;8.02;2.40;;;7.60;79.90;;;;;;5123839;27;20201;-71
2022/11/23 02:08:43;;;;;;;7.28;2.50;;;7.60;79.90;;;;;;5126782;27;20288;-69
2022/11/23 02:11:14;;;;;;;5.63;2.28;;;7.60;79.90;;;;;;5125487;27;20234;-71
2022/11/23 02:13:44;;;;;;;11.20;2.70;;;7.70;79.80;;;;;;5123241;27;20308;-71
2022/11/23 02:16:13;;;;;;;6.13;2.20;;;7.60;79.90;;;;;;5122000;27;20246;-71
2022/11/23 02:18:44;;;;;;;7.35;2.13;;;7.70;79.90;;;;;;5122873;27;20320;-71
2022/11/23 02:21:13;;;;;;;6.97;2.72;;;7.70;79.80;;;;;;5120882;27;20225;-72
2022/11/23 02:23:55;;;;;;;7.10;2.05;;;7.70;79.80;;;;;;5125102;27;20214;-71
2022/11/23 02:26:27;;;;;;;6.30;2.45;;;7.70;79.80;;;;;;5125435;27;20205;-70
2022/11/23 02:29:00;;;;;;;7.00;2.42;;;7.70;79.80;;;;;;5122450;27;20203;-71
2022/11/23 02:31:30;;;;;;;9.35;2.42;;;7.70;79.80;;;;;;5137816;27;20210;-71
2022/11/23 02:33:58;;;;;;;9.98;2.88;;;7.70;79.80;;;;;;5122729;27;20731;-70
2022/11/23 02:36:35;;;;;;;9.05;2.83;;;7.70;79.90;;;;;;5120372;27;20232;-70
2022/11/23 02:39:09;;;;;;;12.48;2.72;;;7.70;80.00;;;;;;5124147;27;20209;-71
2022/11/23 02:41:42;;;;;;;7.13;2.65;;;7.70;80.00;;;;;;5118023;27;20259;-71
2022/11/23 02:44:21;;;;;;;8.27;2.72;;;7.70;80.00;;;;;;5136001;27;20202;-71
2022/11/23 02:46:50;;;;;;;6.72;2.50;;;7.70;80.00;;;;;;5138629;27;20206;-70
2022/11/23 02:49:18;;;;;;;6.60;2.33;;;7.80;80.10;;;;;;5126295;27;20201;-72
2022/11/23 02:51:46;;;;;;;11.07;2.83;;;7.80;80.00;;;;;;5134605;27;20849;-71
2022/11/23 02:54:14;;;;;;;5.95;2.50;;;7.80;80.00;;;;;;5120109;27;20317;-72
2022/11/23 02:56:43;;;;;;;7.45;2.35;;;7.80;80.00;;;;;;5121070;27;20218;-70
2022/11/23 02:59:11;;;;;;;10.40;2.20;;;7.80;80.00;;;;;;5118575;27;20210;-71
2022/11/23 03:01:43;;;;;;;8.55;2.53;;;7.90;80.10;;;;;;5121245;27;20262;-70
2022/11/23 03:04:13;;;;;;;7.82;1.95;;;7.90;80.00;;;;;;5122984;27;20486;-71
2022/11/23 03:06:41;;;;;;;6.05;1.80;;;7.90;80.10;;;;;;5126843;27;20200;-70
2022/11/23 03:09:09;;;;;;;6.90;1.85;;;7.90;80.10;;;;;;5123038;27;20232;-71
2022/11/23 03:11:37;;;;;;;9.70;1.95;;;7.90;80.00;;;;;;5121441;27;20202;-70
2022/11/23 03:14:07;;;;;;;8.07;2.30;;;7.90;80.00;;;;;;5122936;27;20194;-71
2022/11/23 03:16:42;;;;;;;7.32;2.00;;;7.90;80.00;;;;;;5121054;27;20926;-71
2022/11/23 03:19:11;;;;;;;12.07;2.35;;;7.90;80.10;;;;;;5122591;27;20202;-70
2022/11/23 03:21:39;;;;;;;5.88;2.05;;;7.90;80.00;;;;;;5120678;27;20202;-70
2022/11/23 03:24:08;;;;;;;6.88;2.10;;;7.90;80.00;;;;;;5114071;27;20226;-71
2022/11/23 03:26:37;;;;;;;4.25;1.75;;;7.90;80.00;;;;;;5122001;27;20209;-70
2022/11/23 03:29:11;;;;;;;8.32;2.45;;;8.00;80.00;;;;;;5121739;27;20213;-70
2022/11/23 03:31:40;;;;;;;5.05;2.10;;;7.90;79.90;;;;;;5120392;27;20680;-70
2022/11/23 03:34:12;;;;;;;5.25;1.95;;;7.90;79.80;;;;;;5121690;27;20298;-70
2022/11/23 03:36:40;;;;;;;5.65;1.90;;;7.90;79.90;;;;;;5122621;27;20222;-70
2022/11/23 03:39:08;;;;;;;4.97;1.80;;;7.90;79.90;;;;;;5118773;27;20194;-71
2022/11/23 03:41:55;;;;;;;6.38;2.40;;;7.90;80.00;;;;;;5121856;27;20687;-70
2022/11/23 03:44:30;;;;;;;6.15;2.25;;;7.90;79.90;;;;;;5121072;27;20249;-71
2022/11/23 03:46:58;;;;;;;7.13;2.10;;;7.90;80.00;;;;;;5113752;27;20292;-70
2022/11/23 03:49:27;;;;;;;6.80;2.72;;;7.90;79.90;;;;;;5122384;27;20237;-71
2022/11/23 03:51:55;;;;;;;9.00;2.80;;;7.90;80.00;;;;;;5121398;27;20205;-70
2022/11/23 03:54:23;;;;;;;5.03;2.05;;;7.90;80.00;;;;;;5122497;27;20222;-70
2022/11/23 03:56:51;;;;;;;11.18;2.40;;;7.90;80.00;;;;;;5119594;27;20222;-70
2022/11/23 03:59:19;;;;;;;7.40;2.22;;;7.90;79.90;;;;;;5123748;27;20230;-70
2022/11/23 04:01:49;;;;;;;8.13;2.20;;;7.90;80.00;;;;;;5123993;27;20205;-71
2022/11/23 04:04:24;;;;;;;8.93;2.15;;;7.90;79.90;;;;;;5121501;27;20651;-70
2022/11/23 04:06:59;;;;;;;5.80;2.15;;;7.90;79.90;;;;;;5140932;27;20250;-71
2022/11/23 04:09:31;;;;;;;9.88;2.05;;;7.90;80.00;;;;;;5121295;27;20233;-70
2022/11/23 04:12:03;;;;;;;8.10;2.38;;;7.90;80.00;;;;;;5124055;27;20204;-70
2022/11/23 04:14:31;;;;;;;9.77;2.30;;;7.90;80.00;;;;;;5125008;27;20190;-70
2022/11/23 04:17:02;;;;;;;13.20;3.83;;;7.90;80.00;;;;;;5139903;27;20226;-70
2022/11/23 04:19:30;;;;;;;5.05;1.95;;;7.90;79.90;;;;;;5123047;27;20271;-70
2022/11/23 04:21:59;;;;;;;8.05;2.38;;;7.90;79.90;;;;;;5121098;27;20224;-70
2022/11/23 04:24:31;;;;;;;9.38;2.80;;;7.90;79.90;;;;;;5123117;27;20193;-70
2022/11/23 04:27:02;;;;;;;7.75;2.33;;;7.90;79.90;;;;;;5120579;27;20206;-70
2022/11/23 04:29:30;;;;;;;6.15;2.40;;;7.90;79.90;;;;;;5131189;27;20695;-70
2022/11/23 04:32:00;;;;;;;7.07;2.00;;;7.90;79.90;;;;;;5122739;28;20202;-70
2022/11/23 04:34:28;;;;;;;4.70;1.77;;;7.90;79.90;;;;;;5133853;27;20210;-71
2022/11/23 04:36:56;;;;;;;8.05;2.17;;;7.90;79.90;;;;;;5119535;27;20202;-69
2022/11/23 04:39:32;;;;;;;8.40;2.55;;;7.90;79.90;;;;;;5125025;27;20225;-70
2022/11/23 04:42:18;;;;;;;7.22;2.08;;;7.90;79.80;;;;;;5122297;27;20312;-70
2022/11/23 04:44:51;;;;;;;9.63;2.10;;;7.90;79.80;;;;;;5125906;27;20659;-72
2022/11/23 04:47:21;;;;;;;9.77;2.00;;;7.90;79.90;;;;;;5142767;27;20819;-70
2022/11/23 04:49:49;;;;;;;5.57;1.92;;;7.90;79.80;;;;;;5126225;27;20225;-71
2022/11/23 04:52:19;;;;;;;5.18;1.83;;;7.90;79.90;;;;;;5121908;27;20266;-73
2022/11/23 04:54:50;;;;;;;5.45;2.33;;;7.90;79.80;;;;;;5117429;27;20324;-71
2022/11/23 04:57:18;;;;;;;7.03;2.38;;;7.90;79.70;;;;;;5130348;27;20210;-71
2022/11/23 04:59:48;;;;;;;4.88;2.08;;;7.90;79.80;;;;;;5126454;27;20306;-70
2022/11/23 05:02:16;;;;;;;7.30;2.30;;;7.90;79.80;;;;;;5125179;27;20210;-71
2022/11/23 05:04:45;;;;;;;11.27;3.05;;;7.90;79.80;;;;;;5127333;27;20208;-70
2022/11/23 05:07:15;;;;;;;7.40;2.45;;;7.90;79.90;;;;;;5124997;27;20202;-70
2022/11/23 05:09:49;;;;;;;5.00;1.90;;;7.90;79.90;;;;;;5124789;27;20218;-70
2022/11/23 05:12:18;;;;;;;9.63;1.90;;;7.90;79.80;;;;;;5123511;27;20221;-70
2022/11/23 05:14:46;;;;;;;5.15;1.80;;;8.00;79.80;;;;;;5128254;27;20702;-71
2022/11/23 05:17:20;;;;;;;8.25;2.45;;;8.00;79.80;;;;;;5127561;27;20650;-71
2022/11/23 05:19:50;;;;;;;6.68;1.80;;;8.00;79.80;;;;;;5125032;27;20698;-72
2022/11/23 05:22:19;;;;;;;5.93;1.92;;;8.00;79.80;;;;;;5126010;27;20202;-71
2022/11/23 05:24:47;;;;;;;7.40;2.25;;;8.00;79.70;;;;;;5122295;27;20207;-71
2022/11/23 05:27:19;;;;;;;13.50;2.63;;;8.00;79.80;;;;;;5116206;27;20190;-71
2022/11/23 05:29:47;;;;;;;12.23;2.47;;;8.00;79.70;;;;;;5126399;27;20233;-71
2022/11/23 05:32:15;;;;;;;5.93;1.95;;;8.00;79.70;;;;;;5126611;27;20254;-71
2022/11/23 05:34:43;;;;;;;7.13;1.88;;;8.00;79.70;;;;;;5122137;27;20206;-72
2022/11/23 05:37:15;;;;;;;6.00;2.20;;;8.00;79.70;;;;;;5117000;27;20667;-71
2022/11/23 05:39:52;;;;;;;6.32;2.10;;;8.00;79.70;;;;;;5122919;27;20759;-71
2022/11/23 05:42:27;;;;;;;9.38;2.30;;;8.00;79.70;;;;;;5123705;27;20198;-71
2022/11/23 05:45:00;;;;;;;6.38;2.10;;;8.00;79.70;;;;;;5121171;27;20202;-71
2022/11/23 05:47:37;;;;;;;7.82;2.10;;;8.00;79.70;;;;;;5124667;27;20778;-70
2022/11/23 05:50:09;;;;;;;5.75;1.90;;;8.00;79.70;;;;;;5120634;27;20313;-70
2022/11/23 05:52:43;;;;;;;7.63;1.92;;;8.00;79.70;;;;;;5123769;27;20206;-72
2022/11/23 05:55:11;;;;;;;5.78;2.03;;;8.00;79.70;;;;;;5124380;27;20219;-71
2022/11/23 05:57:39;;;;;;;8.15;2.60;;;8.00;79.60;;;;;;5121865;27;20202;-71
2022/11/23 06:00:10;;;;;;;7.00;2.75;;;8.00;79.50;;;;;;5127668;27;20218;-71
2022/11/23 06:02:45;;;;;;;5.43;2.25;;;7.90;79.50;;;;;;5123397;27;20210;-70
2022/11/23 06:05:13;;;;;;;4.75;2.00;;;7.90;79.60;;;;;;5125207;27;20274;-70
2022/11/23 06:07:52;;;;;;;6.47;2.55;;;7.90;79.70;;;;;;5120958;27;20202;-70
2022/11/23 06:10:25;;;;;;;5.10;2.50;;;7.90;79.80;;;;;;5121778;27;20236;-70
2022/11/23 06:12:53;;;;;;;6.78;2.15;;;8.00;79.70;;;;;;5123833;27;20210;-70
2022/11/23 06:15:23;;;;;;;6.60;2.42;;;8.00;79.80;;;;;;5123999;27;20210;-71
2022/11/23 06:17:51;;;;;;;8.02;2.42;;;8.00;79.80;;;;;;5125906;27;20290;-71
2022/11/23 06:20:21;;;;;;;7.22;2.10;;;8.00;79.80;;;;;;5123751;27;20222;-70
2022/11/23 06:22:59;;;;;;;6.13;2.00;;;8.00;79.80;;;;;;5126469;27;20670;-70
2022/11/23 06:25:28;;;;;;;5.85;2.47;;;8.00;79.70;;;;;;5122654;27;20216;-71
2022/11/23 06:28:13;;;;;;;5.85;2.22;;;8.00;79.80;;;;;;5123263;27;20563;-71
2022/11/23 06:30:44;;;;;;;7.82;1.92;;;8.00;79.80;;;;;;5123779;27;20222;-71
2022/11/23 06:33:14;;;;;;;6.00;2.28;;;8.00;79.80;;;;;;5132356;27;20206;-70
2022/11/23 06:35:53;;;;;;;7.05;1.60;;;8.00;79.80;;;;;;5122044;27;20210;-72
2022/11/23 06:38:23;;;;;;;5.93;1.88;;;8.00;79.80;;;;;;5125315;27;20223;-71
2022/11/23 06:40:59;;;;;;;12.07;2.22;;;8.10;79.80;;;;;;5123992;27;20604;-71
2022/11/23 06:43:29;;;;;;;5.88;2.60;;;8.10;79.80;;;;;;5120678;27;20199;-70
2022/11/23 06:45:59;;;;;;;8.85;2.30;;;8.10;79.80;;;;;;5122182;27;20282;-70
2022/11/23 06:48:29;;;;;;;7.28;2.05;;;8.10;79.80;;;;;;5122042;27;20220;-69
2022/11/23 06:50:59;;;;;;;6.93;2.10;;;8.10;79.80;;;;;;5125601;27;20308;-69
2022/11/23 06:53:29;;;;;;;11.48;4.68;;;8.10;79.80;;;;;;5121225;27;20810;-72
2022/11/23 06:56:02;;;;;;;8.30;4.28;;;8.10;79.70;;;;;;5119862;27;20208;-71
2022/11/23 06:58:32;;;;;;;12.35;6.57;;;8.10;79.70;;;;;;5122122;27;20309;-71
2022/11/23 07:01:05;;;;;;;11.07;4.80;;;8.10;79.70;;;;;;5119377;27;20990;-71
2022/11/23 07:03:39;;;;;;;10.13;3.47;;;8.00;79.70;;;;;;5109366;27;20209;-71
2022/11/23 07:06:19;;;;;;;17.83;4.50;;;8.00;79.60;;;;;;5121544;27;20205;-71
2022/11/23 07:08:50;;;;;;;10.15;3.58;;;8.00;79.60;;;;;;5114076;27;20207;-70
2022/11/23 07:11:29;;;;;;;8.98;2.35;;;7.90;79.60;;;;;;5140085;27;20206;-71
2022/11/23 07:13:57;;;;;;;9.25;2.83;;;7.90;79.80;;;;;;5121187;27;20279;-72
2022/11/23 07:16:27;;;;;;;8.13;2.47;;;7.90;79.80;;;;;;5123278;27;20233;-69
2022/11/23 07:18:58;;;;;;;7.10;2.55;;;7.90;79.90;;;;;;5123388;27;20218;-70
2022/11/23 07:21:26;;;;;;;6.35;2.85;;;7.90;79.90;;;;;;5122963;27;20869;-71
2022/11/23 07:23:55;;;;;;;11.00;4.22;;;7.90;80.00;;;;;;5111394;27;20828;-71
2022/11/23 07:26:23;;;;;;;13.05;8.27;;;8.00;79.90;;;;;;5125528;27;20190;-71
2022/11/23 07:28:51;;;;;;;32.28;15.43;;;8.00;79.90;;;;;;5123667;27;20213;-72
2022/11/23 07:31:20;;;;;;;19.00;11.55;;;8.00;79.90;;;;;;5133936;27;20691;-71
2022/11/23 07:33:48;;;;;;;14.07;8.05;;;8.00;79.90;;;;;;5124270;27;20202;-71
2022/11/23 07:36:17;;;;;;;12.40;7.32;;;8.00;79.90;;;;;;5120337;27;20205;-70
2022/11/23 07:38:45;;;;;;;16.33;6.40;;;8.00;79.90;;;;;;5120679;27;20222;-71
2022/11/23 07:41:17;;;;;;;14.05;4.55;;;8.00;80.00;;;;;;5122153;27;20313;-71
2022/11/23 07:44:20;;;;;;;14.00;4.35;;;8.00;80.00;;;;;;5100074;27;20878;-70
2022/11/23 07:46:53;;;;;;;6.30;3.45;;;8.00;80.00;;;;;;5119862;27;20229;-70
2022/11/23 07:49:21;;;;;;;7.85;3.00;;;8.00;80.10;;;;;;5122812;27;20205;-70
2022/11/23 07:51:49;;;;;;;9.77;2.80;;;8.10;80.10;;;;;;5120198;27;20198;-71
2022/11/23 07:54:17;;;;;;;6.55;2.10;;;8.10;80.10;;;;;;5122027;27;20723;-71
2022/11/23 07:56:51;;;;;;;8.07;3.78;;;8.10;80.10;;;;;;5122305;27;20206;-71
2022/11/23 07:59:19;;;;;;;8.82;3.20;;;8.10;80.00;;;;;;5122478;27;20266;-70
2022/11/23 08:01:47;;;;;;;8.40;2.65;;;8.10;80.10;;;;;;5120078;27;20205;-71
2022/11/23 08:04:22;;;;;;;11.52;3.10;;;8.10;80.10;;;;;;5122278;27;20247;-71
2022/11/23 08:06:50;;;;;;;4.78;2.20;;;8.10;80.10;;;;;;5122958;27;20246;-71
2022/11/23 08:09:18;;;;;;;9.88;2.25;;;8.20;80.10;;;;;;5123491;27;20190;-70
2022/11/23 08:11:46;;;;;;;5.25;1.88;;;8.20;80.10;;;;;;5118516;27;20222;-70
2022/11/23 08:14:16;;;;;;;6.50;1.98;;;8.20;80.10;;;;;;5121929;27;20202;-71
2022/11/23 08:16:44;;;;;;;10.02;2.35;;;8.20;80.20;;;;;;5123293;27;20226;-72
2022/11/23 08:19:12;;;;;;;10.57;2.60;;;8.20;80.20;;;;;;5121380;27;20214;-72
2022/11/23 08:21:40;;;;;;;9.60;3.15;;;8.30;80.20;;;;;;5122722;27;20685;-71
2022/11/23 08:24:08;;;;;;;9.07;2.50;;;8.30;80.10;;;;;;5124780;27;20202;-70
2022/11/23 08:26:36;;;;;;;7.20;2.25;;;8.30;80.10;;;;;;5124582;27;20202;-71
2022/11/23 08:29:05;;;;;;;6.40;2.03;;;8.30;80.10;;;;;;5124010;27;20194;-72
2022/11/23 08:31:34;;;;;;;8.25;2.42;;;8.30;80.20;;;;;;5125636;27;20202;-71
2022/11/23 08:34:02;;;;;;;6.07;2.13;;;8.30;80.20;;;;;;5121193;27;20198;-71
2022/11/23 08:36:30;;;;;;;5.50;1.70;;;8.40;80.10;;;;;;5123399;28;20739;-71
2022/11/23 08:38:59;;;;;;;6.43;1.95;;;8.40;80.10;;;;;;5117722;28;20579;-71
2022/11/23 08:41:27;;;;;;;5.83;2.13;;;8.40;80.10;;;;;;5121560;28;20226;-70
2022/11/23 08:43:55;;;;;;;7.07;2.40;;;8.40;80.00;;;;;;5120040;28;20869;-72
2022/11/23 08:46:23;;;;;;;7.18;2.20;;;8.40;80.00;;;;;;5138914;27;20205;-69
2022/11/23 08:48:53;;;;;;;7.50;2.50;;;8.40;80.00;;;;;;5121167;28;20194;-71
2022/11/23 08:51:21;;;;;;;6.80;2.25;;;8.50;80.00;;;;;;5121963;27;20218;-71
2022/11/23 08:53:50;;;;;;;5.97;1.85;;;8.50;80.10;;;;;;5117810;28;20955;-71
2022/11/23 08:56:18;;;;;;;4.80;2.15;;;8.50;80.10;;;;;;5124114;28;20206;-71
2022/11/23 08:58:46;;;;;;;9.13;2.15;;;8.50;80.10;;;;;;5125420;27;20263;-71
2022/11/23 09:01:16;;;;;;;6.63;1.98;;;8.50;80.10;;;;;;5125683;27;20273;-71
2022/11/23 09:03:45;;;;;;;10.77;2.22;;;8.50;80.10;;;;;;5121840;27;20230;-70
2022/11/23 09:06:14;;;;;;;5.87;2.30;;;8.50;80.10;;;;;;5122764;28;20721;-71
2022/11/23 09:08:42;;;;;;;8.13;2.50;;;8.60;80.10;;;;;;5123224;28;20459;-71
2022/11/23 09:11:12;;;;;;;8.17;2.70;;;8.60;80.00;;;;;;5125351;27;20214;-71
2022/11/23 09:13:40;;;;;;;10.53;3.73;;;8.60;80.10;;;;;;5124966;28;20473;-71
2022/11/23 09:16:09;;;;;;;11.27;2.50;;;8.60;80.10;;;;;;5124128;28;20508;-71
2022/11/23 09:18:37;;;;;;;12.55;2.75;;;8.60;80.10;;;;;;5122951;28;20692;-70
2022/11/23 09:21:06;;;;;;;8.83;2.67;;;8.60;80.10;;;;;;5121672;27;20222;-70
2022/11/23 09:23:35;;;;;;;7.97;3.03;;;8.60;80.10;;;;;;5123393;27;20443;-70
2022/11/23 09:26:04;;;;;;;9.82;2.88;;;8.70;80.00;;;;;;5129634;27;20484;-71
2022/11/23 09:28:33;;;;;;;6.13;2.35;;;8.70;80.10;;;;;;5128066;27;20206;-71
2022/11/23 09:31:04;;;;;;;5.05;2.25;;;8.70;80.10;;;;;;5125096;27;20231;-71
2022/11/23 09:33:32;;;;;;;8.55;2.60;;;8.70;80.00;;;;;;5124154;27;20202;-70
2022/11/23 09:36:01;;;;;;;6.10;1.90;;;8.70;80.00;;;;;;5127578;27;20683;-71
2022/11/23 09:38:30;;;;;;;6.95;2.80;;;8.80;80.00;;;;;;5126844;27;20458;-71
2022/11/23 09:41:53;;;;;;;7.07;2.00;;;8.80;80.00;;;;;;5127746;27;20222;-70
2022/11/23 09:44:27;;;;;;;8.90;2.30;;;8.80;80.00;;;;;;5106326;27;20321;-71
2022/11/23 09:47:09;;;;;;;12.80;2.60;;;8.80;79.90;;;;;;5121836;27;20251;-70
2022/11/23 09:49:44;;;;;;;10.88;2.92;;;8.80;79.90;;;;;;5124637;27;20283;-70
2022/11/23 09:52:16;;;;;;;6.97;2.20;;;8.80;79.90;;;;;;5124894;27;20202;-70
2022/11/23 09:54:47;;;;;;;8.13;1.83;;;8.80;79.90;;;;;;5124799;27;20960;-71
2022/11/23 09:57:21;;;;;;;10.60;2.50;;;8.90;79.90;;;;;;5125338;27;20530;-70
2022/11/23 09:59:54;;;;;;;5.80;2.40;;;8.90;79.90;;;;;;5124110;27;20918;-71
2022/11/23 10:02:25;;;;;;;9.57;3.20;;;8.90;79.90;;;;;;5123282;27;20194;-71
2022/11/23 10:04:54;;;;;;;7.82;2.50;;;8.90;80.00;;;;;;5124925;27;20756;-70
2022/11/23 10:07:42;;;;;;;7.70;2.40;;;9.00;80.00;;;;;;5122401;27;20262;-71
2022/11/23 10:10:22;;;;;;;13.93;2.77;;;9.00;80.00;;;;;;5125394;27;20475;-71
2022/11/23 10:13:00;;;;;;;11.60;2.40;;;9.00;80.00;;;;;;5123171;27;20467;-71
2022/11/23 10:15:33;;;;;;;8.73;2.80;;;9.00;80.00;;;;;;5124295;27;21069;-72
2022/11/23 10:18:22;;;;;;;9.00;2.80;;;9.10;80.00;;;;;;5124741;27;20517;-71
2022/11/23 10:20:59;;;;;;;9.70;3.00;;;9.10;79.90;;;;;;5120643;27;20475;-70
2022/11/23 10:23:42;;;;;;;8.53;2.77;;;9.10;79.90;;;;;;5126208;27;20454;-71
2022/11/23 10:26:15;;;;;;;11.37;3.20;;;9.10;79.90;;;;;;5127474;27;20462;-71
2022/11/23 10:28:46;;;;;;;6.73;2.63;;;9.10;79.80;;;;;;5128402;27;20454;-71
2022/11/23 10:31:16;;;;;;;9.73;3.30;;;9.10;79.90;;;;;;5120448;27;20567;-69
2022/11/23 10:33:53;;;;;;;8.40;2.80;;;9.20;80.00;;;;;;5119436;27;20473;-70
2022/11/23 10:36:21;;;;;;;7.70;2.30;;;9.20;79.90;;;;;;5122625;27;20463;-71
2022/11/23 10:38:51;;;;;;;8.90;2.70;;;9.30;79.80;;;;;;5120560;27;20485;-71
2022/11/23 10:41:19;;;;;;;9.20;3.17;;;9.30;79.70;;;;;;5124734;27;20951;-71
2022/11/23 10:43:52;;;;;;;6.73;2.50;;;9.20;79.70;;;;;;5123220;27;20542;-69
2022/11/23 10:46:30;;;;;;;13.03;4.03;;;9.30;79.80;;;;;;5124013;27;20467;-70
2022/11/23 10:49:18;;;;;;;9.27;3.03;;;9.30;79.80;;;;;;5119467;27;20456;-70
2022/11/23 10:51:53;;;;;;;6.90;2.10;;;9.30;79.80;;;;;;5121739;27;20447;-69
2022/11/23 10:54:29;;;;;;;8.47;2.73;;;9.30;79.70;;;;;;5122895;27;21309;-70
2022/11/23 10:56:59;;;;;;;5.03;1.90;;;9.30;79.80;;;;;;5123516;27;20442;-69
2022/11/23 10:59:36;;;;;;;5.97;2.10;;;9.40;79.70;;;;;;5123731;27;20471;-69
2022/11/23 11:02:24;;;;;;;5.77;2.20;;;9.40;79.70;;;;;;5122649;27;20507;-72
2022/11/23 11:05:23;;;;;;;8.43;4.00;;;9.40;79.70;;;;;;5117662;27;20480;-70
2022/11/23 11:08:15;;;;;;;10.70;2.80;;;9.40;79.70;;;;;;5122337;27;20462;-69
2022/11/23 11:10:48;;;;;;;7.70;3.47;;;9.40;79.70;;;;;;5123330;27;20471;-69
2022/11/23 11:13:24;;;;;;;11.80;3.03;;;9.40;79.70;;;;;;5123417;27;20448;-70
2022/11/23 11:15:55;;;;;;;10.00;4.40;;;9.50;79.70;;;;;;5121329;27;20466;-71
2022/11/23 11:18:28;;;;;;;15.77;6.17;;;9.50;79.60;;;;;;5125258;27;20520;-70
2022/11/23 11:20:59;;;;;;;15.33;7.60;;;9.50;79.60;;;;;;5123468;27;20475;-69
2022/11/23 11:23:30;;;;;;;7.87;3.53;;;9.50;79.50;;;;;;5114970;27;20451;-70
2022/11/23 11:26:08;;;;;;;7.20;2.80;;;9.50;79.50;;;;;;5118474;27;20463;-71
2022/11/23 11:28:40;;;;;;;12.90;2.40;;;9.60;79.60;;;;;;5124004;27;20443;-69
2022/11/23 11:31:46;;;;;;;10.80;2.50;;;9.60;79.50;;;;;;5124542;27;20479;-69
2022/11/23 11:34:21;;;;;;;6.53;2.00;;;9.60;79.40;;;;;;5118438;27;20548;-70
2022/11/23 11:36:57;;;;;;;7.83;2.20;;;9.60;79.50;;;;;;5126679;27;20516;-70
2022/11/23 11:39:30;;;;;;;10.83;2.40;;;9.70;79.40;;;;;;5122555;27;20455;-70
2022/11/23 11:42:03;;;;;;;8.53;2.40;;;9.70;79.50;;;;;;5119440;27;20490;-70
2022/11/23 11:44:36;;;;;;;9.03;2.20;;;9.70;79.50;;;;;;5123112;27;20492;-70
2022/11/23 11:47:24;;;;;;;6.10;2.00;;;9.80;79.40;;;;;;5123989;27;20459;-70
2022/11/23 11:49:57;;;;;;;12.93;4.30;;;9.80;79.40;;;;;;5124477;27;20483;-70
2022/11/23 11:52:29;;;;;;;7.63;2.90;;;9.80;79.40;;;;;;5121489;27;20496;-69
2022/11/23 11:55:04;;;;;;;15.27;4.57;;;9.90;79.30;;;;;;5122794;27;20467;-72
2022/11/23 11:57:36;;;;;;;15.20;4.40;;;9.90;79.20;;;;;;5125056;27;20450;-73
2022/11/23 12:00:11;;;;;;;7.70;2.80;;;9.90;79.10;;;;;;5123298;27;20582;-73
2022/11/23 12:02:50;;;;;;;9.40;2.50;;;9.90;79.10;;;;;;5122712;27;20519;-72
2022/11/23 12:05:24;;;;;;;9.10;1.87;;;9.90;78.90;;;;;;5123396;27;20487;-71
2022/11/23 12:08:00;;;;;;;9.37;2.40;;;9.90;78.90;;;;;;5126241;27;20463;-71
2022/11/23 12:10:36;;;;;;;7.93;2.10;;;9.90;78.90;;;;;;5124433;27;20474;-73
2022/11/23 12:13:05;;;;;;;4.50;1.67;;;9.90;78.70;;;;;;5124262;27;20507;-72
2022/11/23 12:15:40;;;;;;;8.03;2.90;;;9.90;78.70;;;;;;5125027;27;20463;-74
2022/11/23 12:18:46;;;;;;;11.40;2.47;;;10.00;78.80;;;;;;5122325;27;20440;-74
2022/11/23 12:21:31;;;;;;;12.10;2.30;;;10.00;78.80;;;;;;5123922;27;20483;-74
2022/11/23 12:24:12;;;;;;;8.43;1.73;;;10.00;78.70;;;;;;5121712;27;20466;-74
2022/11/23 12:26:47;;;;;;;11.73;2.57;;;10.00;78.70;;;;;;5122854;27;20926;-73
2022/11/23 12:29:48;;;;;;;4.80;1.67;;;10.00;78.60;;;;;;5122325;27;20462;-72
2022/11/23 12:32:30;;;;;;;7.50;2.23;;;10.00;78.60;;;;;;5121473;27;21064;-74
2022/11/23 12:35:22;;;;;;;8.23;2.10;;;10.10;78.50;;;;;;5120666;28;20956;-73
2022/11/23 12:38:03;;;;;;;6.30;1.70;;;10.10;78.30;;;;;;5122465;27;20459;-73
2022/11/23 12:40:44;;;;;;;4.27;1.67;;;10.10;78.30;;;;;;5122420;27;20483;-74
2022/11/23 12:43:15;;;;;;;8.57;1.70;;;10.10;78.30;;;;;;5121109;28;20474;-72
2022/11/23 12:46:10;;;;;;;5.03;1.70;;;10.20;78.20;;;;;;5124694;28;20516;-74
2022/11/23 12:48:51;;;;;;;10.10;2.07;;;10.20;77.90;;;;;;5115303;27;20471;-73
2022/11/23 12:51:29;;;;;;;6.33;2.00;;;10.20;77.90;;;;;;5122854;27;20547;-72
2022/11/23 12:54:14;;;;;;;7.20;1.80;;;10.20;77.90;;;;;;5122805;28;20459;-74
2022/11/23 12:56:57;;;;;;;5.80;2.03;;;10.20;77.80;;;;;;5121895;27;20554;-72
2022/11/23 12:59:30;;;;;;;5.07;1.63;;;10.20;77.60;;;;;;5125822;27;20459;-73
2022/11/23 13:02:04;;;;;;;8.17;1.90;;;10.20;77.60;;;;;;5125716;27;20478;-72
2022/11/23 13:04:54;;;;;;;5.90;1.70;;;10.20;77.40;;;;;;5126811;27;20971;-72
2022/11/23 13:08:01;;;;;;;5.77;1.50;;;10.20;77.30;;;;;;5125045;27;21056;-74
2022/11/23 13:10:44;;;;;;;9.87;2.47;;;10.20;77.30;;;;;;5126015;27;20479;-73
2022/11/23 13:13:29;;;;;;;5.10;1.50;;;10.20;77.20;;;;;;5125339;27;21103;-73
2022/11/23 13:16:21;;;;;;;8.13;2.03;;;10.20;77.10;;;;;;5121867;27;20460;-74
2022/11/23 13:19:09;;;;;;;7.73;1.60;;;10.30;76.90;;;;;;5125541;27;20495;-72
2022/11/23 13:21:39;;;;;;;8.23;2.13;;;10.20;76.90;;;;;;5126918;27;20541;-74